createdAt,value
2023-01-22T00:00:04.647Z,97.59
2023-01-22T00:01:44.815Z,97.57
2023-01-22T00:03:25.051Z,97.48
2023-01-22T00:05:05.182Z,97.41
2023-01-22T00:06:45.378Z,97.35
2023-01-22T00:08:25.569Z,97.3
2023-01-22T00:10:05.769Z,97.25
2023-01-22T00:11:45.935Z,97.11
2023-01-22T00:13:26.129Z,97.07
2023-01-22T00:15:06.280Z,97.06
2023-01-22T00:16:46.544Z,97.05
2023-01-22T00:18:26.718Z,97.05
2023-01-22T00:20:06.879Z,97.02
2023-01-22T00:21:47.036Z,97
2023-01-22T00:23:27.248Z,96.97
2023-01-22T00:25:07.404Z,96.95
2023-01-22T00:26:47.592Z,96.94
2023-01-22T00:28:27.796Z,96.96
2023-01-22T00:30:08.180Z,97
2023-01-22T00:30:08.193Z,97
2023-01-22T00:30:08.203Z,97
2023-01-22T00:31:48.395Z,96.96
2023-01-22T00:33:28.458Z,96.89
2023-01-22T00:35:08.659Z,96.88
2023-01-22T00:36:48.889Z,96.91
2023-01-22T00:38:29.081Z,96.89
2023-01-22T00:40:09.300Z,96.88
2023-01-22T00:41:49.481Z,96.92
2023-01-22T00:43:29.636Z,96.97
2023-01-22T00:45:09.804Z,96.99
2023-01-22T00:46:50.100Z,97
2023-01-22T00:48:30.242Z,97.05
2023-01-22T00:50:10.398Z,96.98
2023-01-22T00:51:50.644Z,97
2023-01-22T00:53:30.874Z,96.98
2023-01-22T00:55:11.040Z,96.95
2023-01-22T00:56:51.287Z,96.98
2023-01-22T00:58:31.452Z,96.98
2023-01-22T01:00:11.619Z,97.04
2023-01-22T01:01:51.873Z,97.06
2023-01-22T01:03:32.097Z,97.1
2023-01-22T01:05:12.235Z,97.1
2023-01-22T01:06:52.438Z,97.11
2023-01-22T01:08:32.658Z,97.15
2023-01-22T01:10:12.809Z,97.16
2023-01-22T01:11:53.009Z,97.16
2023-01-22T01:13:33.354Z,97.2
2023-01-22T01:15:13.443Z,97.22
2023-01-22T01:16:53.629Z,97.22
2023-01-22T01:18:33.823Z,97.33
2023-01-22T01:20:14.003Z,97.3
2023-01-22T01:21:54.198Z,97.34
2023-01-22T01:23:34.390Z,97.31
2023-01-22T01:25:14.598Z,97.33
2023-01-22T01:26:54.803Z,97.37
2023-01-22T01:28:34.939Z,97.37
2023-01-22T01:30:15.212Z,97.41
2023-01-22T01:31:55.386Z,97.47
2023-01-22T01:33:35.540Z,97.51
2023-01-22T01:35:15.819Z,97.54
2023-01-22T01:36:55.969Z,97.53
2023-01-22T01:38:36.217Z,97.57
2023-01-22T01:40:16.817Z,97.59
2023-01-22T01:41:56.639Z,97.61
2023-01-22T01:43:36.840Z,97.61
2023-01-22T01:45:17.033Z,97.61
2023-01-22T01:46:57.307Z,97.66
2023-01-22T01:48:37.381Z,97.65
2023-01-22T01:50:17.953Z,97.63
2023-01-22T01:51:57.783Z,97.69
2023-01-22T01:53:37.935Z,97.67
2023-01-22T01:55:18.118Z,97.68
2023-01-22T01:56:58.318Z,97.63
2023-01-22T01:58:38.505Z,97.58
2023-01-22T02:00:19.076Z,97.56
2023-01-22T02:01:58.955Z,97.54
2023-01-22T02:03:39.216Z,97.56
2023-01-22T02:05:19.317Z,97.56
2023-01-22T02:06:59.495Z,97.58
2023-01-22T02:08:39.716Z,97.58
2023-01-22T02:10:20.184Z,97.6
2023-01-22T02:12:00.117Z,97.6
2023-01-22T02:13:40.234Z,97.51
2023-01-22T02:15:20.458Z,97.45
2023-01-22T02:17:00.646Z,97.42
2023-01-22T02:18:40.861Z,97.37
2023-01-22T02:20:21.052Z,97.35
2023-01-22T02:22:01.308Z,97.35
2023-01-22T02:23:41.493Z,97.29
2023-01-22T02:25:21.670Z,97.27
2023-01-22T02:27:01.848Z,97.22
2023-01-22T02:28:42.041Z,97.21
2023-01-22T02:30:22.217Z,97.26
2023-01-22T02:32:02.418Z,97.31
2023-01-22T02:33:42.627Z,97.26
2023-01-22T02:35:22.817Z,97.32
2023-01-22T02:37:03.027Z,97.33
2023-01-22T02:38:43.281Z,97.39
2023-01-22T02:40:23.538Z,97.38
2023-01-22T02:42:03.725Z,97.43
2023-01-22T02:43:43.931Z,97.45
2023-01-22T02:45:24.203Z,97.4
2023-01-22T02:47:04.336Z,97.38
2023-01-22T02:48:44.516Z,97.41
2023-01-22T02:50:24.684Z,97.41
2023-01-22T02:52:04.885Z,97.44
2023-01-22T02:53:45.086Z,97.31
2023-01-22T02:55:25.314Z,97.25
2023-01-22T02:57:05.491Z,97.26
2023-01-22T02:58:45.682Z,97.29
2023-01-22T03:00:25.862Z,97.26
2023-01-22T03:02:06.111Z,97.29
2023-01-22T03:03:46.289Z,97.28
2023-01-22T03:05:26.501Z,97.21
2023-01-22T03:07:06.676Z,97.18
2023-01-22T03:08:46.851Z,97.13
2023-01-22T03:10:27.144Z,97.05
2023-01-22T03:12:07.315Z,97.08
2023-01-22T03:13:47.484Z,97.05
2023-01-22T03:17:07.835Z,96.95
2023-01-22T03:18:47.993Z,96.99
2023-01-22T03:20:28.227Z,97.04
2023-01-22T03:22:08.411Z,97.11
2023-01-22T03:23:48.579Z,97.19
2023-01-22T03:25:28.790Z,97.19
2023-01-22T03:27:08.984Z,97.19
2023-01-22T03:28:49.237Z,97.19
2023-01-22T03:30:29.410Z,97.26
2023-01-22T03:32:09.629Z,97.32
2023-01-22T03:33:49.833Z,97.34
2023-01-22T03:35:30.005Z,97.33
2023-01-22T03:37:10.225Z,97.38
2023-01-22T03:40:30.668Z,97.35
2023-01-22T03:42:10.855Z,97.4
2023-01-22T03:43:51.028Z,97.46
2023-01-22T03:45:31.281Z,97.44
2023-01-22T03:47:11.423Z,97.38
2023-01-22T03:48:51.590Z,97.38
2023-01-22T03:50:31.795Z,97.34
2023-01-22T03:52:11.971Z,97.27
2023-01-22T03:53:52.192Z,97.34
2023-01-22T03:55:32.399Z,97.3
2023-01-22T03:57:12.576Z,97.33
2023-01-22T03:58:52.792Z,97.26
2023-01-22T04:00:33.032Z,97.3
2023-01-22T04:02:13.265Z,97.3
2023-01-22T04:03:53.386Z,97.26
2023-01-22T04:05:33.574Z,97.23
2023-01-22T04:07:13.776Z,97.18
2023-01-22T04:08:53.938Z,97.14
2023-01-22T04:10:34.121Z,97.18
2023-01-22T04:12:14.356Z,97.13
2023-01-22T04:13:54.471Z,97.17
2023-01-22T04:15:34.656Z,97.07
2023-01-22T04:17:14.858Z,97.01
2023-01-22T04:18:55.058Z,96.91
2023-01-22T04:20:35.244Z,96.82
2023-01-22T04:22:15.420Z,96.82
2023-01-22T04:23:55.610Z,96.87
2023-01-22T04:25:35.783Z,96.84
2023-01-22T04:27:16.026Z,96.73
2023-01-22T04:28:56.187Z,96.7
2023-01-22T04:30:36.495Z,96.66
2023-01-22T04:32:16.558Z,96.74
2023-01-22T04:33:56.779Z,96.76
2023-01-22T04:35:36.956Z,96.82
2023-01-22T04:37:17.132Z,96.83
2023-01-22T04:38:57.362Z,96.84
2023-01-22T04:40:37.557Z,96.88
2023-01-22T04:42:17.703Z,96.91
2023-01-22T04:43:57.883Z,96.91
2023-01-22T04:45:38.084Z,96.96
2023-01-22T04:47:18.259Z,96.99
2023-01-22T04:48:58.410Z,96.96
2023-01-22T04:50:38.645Z,97.04
2023-01-22T04:52:18.860Z,97.09
2023-01-22T04:53:58.991Z,97.14
2023-01-22T04:55:39.196Z,97.25
2023-01-22T04:57:19.427Z,97.28
2023-01-22T04:58:59.597Z,97.32
2023-01-22T05:00:39.770Z,97.35
2023-01-22T05:02:20.000Z,97.43
2023-01-22T05:04:00.167Z,97.47
2023-01-22T05:05:40.381Z,97.52
2023-01-22T05:07:20.645Z,97.58
2023-01-22T05:09:00.842Z,97.59
2023-01-22T05:10:41.009Z,97.62
2023-01-22T05:12:21.197Z,97.64
2023-01-22T05:14:01.375Z,97.69
2023-01-22T05:15:41.600Z,97.72
2023-01-22T05:17:21.750Z,97.73
2023-01-22T05:19:01.925Z,97.77
2023-01-22T05:20:42.112Z,97.84
2023-01-22T05:22:22.327Z,97.93
2023-01-22T05:24:02.489Z,97.96
2023-01-22T05:25:42.682Z,98.02
2023-01-22T05:27:22.845Z,98.06
2023-01-22T05:29:03.096Z,98.04
2023-01-22T05:30:43.437Z,98.08
2023-01-22T05:32:23.472Z,98.11
2023-01-22T05:34:03.677Z,98.19
2023-01-22T05:35:43.849Z,98.19
2023-01-22T05:37:24.084Z,98.21
2023-01-22T05:39:04.319Z,98.24
2023-01-22T05:40:44.490Z,98.3
2023-01-22T05:42:24.721Z,98.33
2023-01-22T05:44:04.932Z,98.38
2023-01-22T05:45:45.064Z,98.36
2023-01-22T05:47:25.259Z,98.38
2023-01-22T05:49:05.463Z,98.41
2023-01-22T05:50:45.625Z,98.42
2023-01-22T05:52:25.833Z,98.43
2023-01-22T05:54:05.995Z,98.46
2023-01-22T05:55:46.190Z,98.44
2023-01-22T05:57:26.360Z,98.48
2023-01-22T05:59:06.559Z,98.5
2023-01-22T06:00:46.773Z,98.53
2023-01-22T06:02:26.964Z,98.54
2023-01-22T06:04:07.111Z,98.56
2023-01-22T06:05:47.328Z,98.57
2023-01-22T06:07:27.590Z,98.59
2023-01-22T06:09:07.703Z,98.62
2023-01-22T06:10:47.924Z,98.66
2023-01-22T06:12:28.056Z,98.67
2023-01-22T06:14:08.243Z,98.67
2023-01-22T06:15:48.440Z,98.69
2023-01-22T06:17:28.625Z,98.71
2023-01-22T06:19:08.858Z,98.74
2023-01-22T06:20:49.002Z,98.7
2023-01-22T06:22:29.212Z,98.78
2023-01-22T06:24:09.363Z,98.77
2023-01-22T06:25:49.529Z,98.81
2023-01-22T06:27:29.667Z,98.85
2023-01-22T06:29:09.867Z,98.86
2023-01-22T06:30:50.208Z,98.85
2023-01-22T06:32:30.293Z,98.84
2023-01-22T06:34:10.508Z,98.89
2023-01-22T06:35:50.692Z,98.88
2023-01-22T06:37:36.747Z,98.84
2023-01-22T06:39:17.014Z,98.91
2023-01-22T06:40:57.206Z,98.84
2023-01-22T06:42:37.388Z,98.86
2023-01-22T06:44:17.548Z,98.92
2023-01-22T06:45:57.744Z,98.86
2023-01-22T06:47:37.934Z,98.82
2023-01-22T06:49:18.158Z,98.86
2023-01-22T06:50:58.340Z,98.88
2023-01-22T06:52:38.535Z,98.89
2023-01-22T06:54:18.712Z,98.82
2023-01-22T06:55:58.880Z,98.83
2023-01-22T06:57:39.143Z,98.79
2023-01-22T06:59:19.247Z,98.77
2023-01-22T07:00:59.413Z,98.79
2023-01-22T07:02:39.657Z,98.73
2023-01-22T07:04:19.796Z,98.71
2023-01-22T07:06:00.055Z,98.72
2023-01-22T07:07:40.188Z,98.69
2023-01-22T07:09:20.448Z,98.67
2023-01-22T07:11:00.601Z,98.66
2023-01-22T07:12:40.755Z,98.64
2023-01-22T07:14:35.740Z,98.63
2023-01-22T07:16:01.189Z,98.57
2023-01-22T07:17:41.327Z,98.6
2023-01-22T07:19:21.544Z,98.59
2023-01-22T07:21:01.659Z,98.48
2023-01-22T07:22:41.839Z,98.45
2023-01-22T07:24:22.102Z,98.43
2023-01-22T07:26:02.227Z,98.43
2023-01-22T07:27:42.454Z,98.41
2023-01-22T07:29:22.609Z,98.43
2023-01-22T07:31:02.888Z,98.41
2023-01-22T07:32:43.004Z,98.42
2023-01-22T07:34:23.205Z,98.43
2023-01-22T07:36:03.376Z,98.43
2023-01-22T07:37:43.566Z,98.45
2023-01-22T07:39:23.785Z,98.46
2023-01-22T07:41:07.220Z,98.43
2023-01-22T07:42:44.229Z,98.43
2023-01-22T07:44:24.440Z,98.43
2023-01-22T07:46:04.564Z,98.51
2023-01-22T07:47:44.741Z,98.48
2023-01-22T07:49:24.970Z,98.46
2023-01-22T07:51:05.278Z,98.48
2023-01-22T07:52:45.372Z,98.48
2023-01-22T07:54:25.558Z,98.48
2023-01-22T07:56:05.743Z,98.44
2023-01-22T07:57:45.952Z,98.43
2023-01-22T07:59:26.147Z,98.4
2023-01-22T08:01:06.410Z,98.41
2023-01-22T08:02:46.523Z,98.41
2023-01-22T08:04:26.727Z,98.42
2023-01-22T08:06:06.950Z,98.4
2023-01-22T08:07:47.111Z,98.44
2023-01-22T08:09:27.315Z,98.48
2023-01-22T08:11:07.499Z,98.47
2023-01-22T08:12:47.679Z,98.45
2023-01-22T08:14:27.868Z,98.41
2023-01-22T08:16:08.125Z,98.4
2023-01-22T08:17:48.253Z,98.41
2023-01-22T08:19:28.490Z,98.41
2023-01-22T08:21:08.706Z,98.42
2023-01-22T08:22:48.872Z,98.41
2023-01-22T08:24:29.054Z,98.42
2023-01-22T08:26:09.271Z,98.36
2023-01-22T08:27:49.442Z,98.32
2023-01-22T08:29:29.617Z,98.32
2023-01-22T08:31:19.344Z,98.32
2023-01-22T08:32:50.009Z,98.23
2023-01-22T08:34:30.235Z,98.16
2023-01-22T08:36:10.416Z,98.08
2023-01-22T08:37:50.615Z,97.99
2023-01-22T08:39:30.827Z,97.9
2023-01-22T08:41:11.035Z,97.81
2023-01-22T08:42:51.238Z,97.73
2023-01-22T08:44:31.428Z,97.68
2023-01-22T08:46:11.634Z,97.61
2023-01-22T08:47:51.790Z,97.57
2023-01-22T08:49:32.010Z,97.41
2023-01-22T08:51:12.262Z,97.25
2023-01-22T08:52:52.386Z,97.16
2023-01-22T08:54:32.561Z,97.07
2023-01-22T08:56:12.739Z,96.93
2023-01-22T08:57:52.938Z,96.86
2023-01-22T08:59:33.130Z,96.83
2023-01-22T09:01:13.411Z,96.77
2023-01-22T09:02:53.544Z,96.68
2023-01-22T09:04:33.713Z,96.65
2023-01-22T09:06:13.934Z,96.57
2023-01-22T09:07:54.094Z,96.52
2023-01-22T09:09:34.293Z,96.4
2023-01-22T09:11:14.445Z,96.37
2023-01-22T09:12:54.640Z,96.39
2023-01-22T09:14:34.796Z,96.24
2023-01-22T09:16:15.122Z,96.15
2023-01-22T09:17:55.159Z,96.03
2023-01-22T09:19:35.350Z,95.96
2023-01-22T09:21:15.570Z,95.94
2023-01-22T09:22:55.782Z,95.93
2023-01-22T09:24:35.923Z,95.95
2023-01-22T09:26:16.105Z,95.9
2023-01-22T09:27:56.272Z,95.85
2023-01-22T09:29:36.508Z,95.75
2023-01-22T09:31:16.799Z,95.68
2023-01-22T09:32:56.876Z,95.61
2023-01-22T09:34:37.096Z,95.52
2023-01-22T09:36:17.267Z,95.46
2023-01-22T09:37:57.466Z,95.42
2023-01-22T09:39:37.671Z,95.16
2023-01-22T09:42:58.114Z,94.93
2023-01-22T09:44:38.288Z,94.82
2023-01-22T09:46:18.521Z,94.69
2023-01-22T09:47:58.657Z,94.59
2023-01-22T09:49:38.808Z,94.43
2023-01-22T09:51:19.112Z,94.3
2023-01-22T09:52:59.214Z,94.14
2023-01-22T09:54:39.403Z,93.88
2023-01-22T09:56:19.597Z,93.75
2023-01-22T09:57:59.766Z,93.7
2023-01-22T09:59:39.953Z,93.79
2023-01-22T10:01:20.153Z,93.67
2023-01-22T10:03:00.362Z,93.22
2023-01-22T10:04:40.574Z,92.99
2023-01-22T10:06:20.755Z,92.98
2023-01-22T10:08:00.946Z,92.83
2023-01-22T10:09:41.140Z,92.71
2023-01-22T10:11:21.357Z,92.39
2023-01-22T10:13:01.522Z,92.36
2023-01-22T10:14:41.665Z,92.05
2023-01-22T10:16:21.949Z,91.68
2023-01-22T10:18:02.477Z,91.27
2023-01-22T10:19:42.292Z,91.24
2023-01-22T10:21:22.481Z,90.85
2023-01-22T10:23:02.670Z,90.57
2023-01-22T10:24:42.883Z,90.02
2023-01-22T10:26:23.048Z,90.12
2023-01-22T10:28:03.224Z,90.18
2023-01-22T10:29:43.443Z,89.86
2023-01-22T10:31:24.165Z,89.68
2023-01-22T10:33:03.795Z,89.81
2023-01-22T10:34:43.988Z,89.76
2023-01-22T10:36:24.163Z,89.97
2023-01-22T10:38:04.346Z,90.25
2023-01-22T10:39:44.558Z,90.01
2023-01-22T10:41:24.719Z,89.93
2023-01-22T10:43:05.040Z,89.98
2023-01-22T10:44:45.142Z,89.93
2023-01-22T10:46:25.341Z,89.86
2023-01-22T10:48:05.581Z,89.95
2023-01-22T10:49:45.722Z,90.14
2023-01-22T10:51:26.046Z,90.16
2023-01-22T10:53:06.093Z,89.95
2023-01-22T10:54:46.267Z,89.96
2023-01-22T10:56:26.471Z,89.94
2023-01-22T10:58:06.603Z,90.29
2023-01-22T10:59:46.787Z,90.26
2023-01-22T11:01:27.128Z,90.24
2023-01-22T11:03:07.258Z,89.98
2023-01-22T11:04:47.415Z,89.9
2023-01-22T11:06:27.621Z,90.27
2023-01-22T11:08:07.780Z,90.12
2023-01-22T11:09:48.104Z,90.5
2023-01-22T11:11:28.158Z,90.73
2023-01-22T11:13:08.336Z,90.61
2023-01-22T11:14:48.530Z,90.54
2023-01-22T11:16:28.706Z,90.44
2023-01-22T11:18:08.865Z,90.24
2023-01-22T11:19:49.104Z,90.42
2023-01-22T11:21:29.224Z,90.21
2023-01-22T11:23:09.392Z,90.29
2023-01-22T11:24:49.637Z,90.28
2023-01-22T11:26:29.806Z,90.28
2023-01-22T11:28:10.046Z,90.41
2023-01-22T11:29:50.223Z,90.3
2023-01-22T11:31:30.456Z,90.42
2023-01-22T11:33:10.630Z,90.54
2023-01-22T11:34:50.907Z,90.32
2023-01-22T11:36:31.171Z,90.18
2023-01-22T11:38:11.323Z,90.39
2023-01-22T11:39:51.541Z,90.5
2023-01-22T11:41:31.738Z,90.28
2023-01-22T11:43:11.929Z,90.24
2023-01-22T11:44:52.123Z,90.29
2023-01-22T11:46:32.346Z,90.63
2023-01-22T11:48:12.461Z,90.4
2023-01-22T11:49:52.684Z,90.25
2023-01-22T11:51:32.909Z,90.34
2023-01-22T11:53:13.094Z,90.53
2023-01-22T11:54:53.260Z,90.47
2023-01-22T11:56:33.450Z,90.36
2023-01-22T11:58:13.643Z,90.39
2023-01-22T11:59:53.817Z,90.5
2023-01-22T12:01:33.983Z,90.64
2023-01-22T12:03:14.244Z,90.52
2023-01-22T12:04:54.416Z,90.87
2023-01-22T12:06:34.572Z,91.05
2023-01-22T12:08:14.791Z,91.18
2023-01-22T12:09:54.989Z,91.06
2023-01-22T12:11:35.179Z,91.07
2023-01-22T12:13:15.380Z,91.34
2023-01-22T12:14:55.565Z,91.3
2023-01-22T12:16:35.718Z,91.28
2023-01-22T12:18:15.993Z,91.22
2023-01-22T12:19:56.176Z,91.17
2023-01-22T12:21:36.380Z,91.03
2023-01-22T12:23:16.556Z,91.16
2023-01-22T12:25:03.819Z,91.28
2023-01-22T12:26:36.874Z,91.23
2023-01-22T12:28:17.073Z,91.32
2023-01-22T12:29:57.300Z,90.94
2023-01-22T12:31:37.511Z,90.81
2023-01-22T12:33:17.658Z,90.92
2023-01-22T12:34:57.905Z,91.2
2023-01-22T12:36:38.108Z,90.94
2023-01-22T12:38:18.270Z,91.03
2023-01-22T12:39:58.483Z,91.19
2023-01-22T12:41:38.651Z,91.38
2023-01-22T12:43:18.847Z,91.42
2023-01-22T12:45:00.106Z,91.75
2023-01-22T12:46:44.108Z,91.48
2023-01-22T12:48:24.212Z,91.67
2023-01-22T12:50:04.982Z,91.74
2023-01-22T12:51:44.689Z,91.83
2023-01-22T12:53:24.824Z,91.71
2023-01-22T12:55:05.036Z,91.92
2023-01-22T12:56:45.235Z,92.07
2023-01-22T12:58:25.456Z,92.17
2023-01-22T13:00:05.605Z,92.37
2023-01-22T13:01:45.816Z,92.14
2023-01-22T13:03:31.677Z,92.28
2023-01-22T13:05:06.089Z,92.38
2023-01-22T13:06:46.286Z,92.53
2023-01-22T13:08:26.520Z,92.48
2023-01-22T13:10:06.649Z,92.57
2023-01-22T13:11:46.799Z,92.44
2023-01-22T13:13:27.018Z,92.57
2023-01-22T13:15:07.241Z,92.59
2023-01-22T13:16:47.390Z,92.58
2023-01-22T13:18:27.585Z,92.51
2023-01-22T13:20:07.801Z,92.48
2023-01-22T13:21:48.035Z,92.73
2023-01-22T13:23:28.209Z,92.75
2023-01-22T13:25:08.364Z,92.58
2023-01-22T13:26:48.530Z,92.47
2023-01-22T13:28:28.748Z,92.76
2023-01-22T13:30:08.952Z,92.63
2023-01-22T13:31:49.266Z,92.53
2023-01-22T13:33:29.374Z,92.57
2023-01-22T13:35:09.574Z,92.65
2023-01-22T13:36:49.789Z,92.52
2023-01-22T13:38:29.982Z,92.45
2023-01-22T13:40:10.306Z,92.25
2023-01-22T13:41:50.419Z,92.25
2023-01-22T13:43:30.636Z,92.19
2023-01-22T13:45:10.821Z,92.15
2023-01-22T13:46:51.119Z,92.19
2023-01-22T13:48:31.236Z,92.34
2023-01-22T13:50:18.831Z,92.3
2023-01-22T13:51:51.617Z,92.38
2023-01-22T13:53:34.870Z,92.41
2023-01-22T13:55:11.980Z,92.32
2023-01-22T13:56:52.193Z,92.48
2023-01-22T13:58:46.437Z,92.5
2023-01-22T14:00:12.679Z,92.62
2023-01-22T14:01:52.920Z,92.83
2023-01-22T14:03:33.008Z,92.76
2023-01-22T14:05:13.206Z,92.84
2023-01-22T14:06:53.432Z,93.01
2023-01-22T14:08:33.634Z,92.98
2023-01-22T14:10:13.817Z,93.06
2023-01-22T14:11:53.993Z,93.25
2023-01-22T14:13:34.229Z,93.29
2023-01-22T14:15:14.379Z,93.53
2023-01-22T14:16:54.599Z,93.44
2023-01-22T14:18:34.806Z,93.59
2023-01-22T14:20:15.005Z,93.54
2023-01-22T14:21:55.190Z,93.66
2023-01-22T14:23:35.401Z,93.59
2023-01-22T14:25:15.561Z,93.71
2023-01-22T14:26:55.775Z,93.75
2023-01-22T14:28:36.013Z,93.7
2023-01-22T14:30:16.573Z,93.69
2023-01-22T14:31:56.475Z,93.8
2023-01-22T14:33:36.613Z,93.96
2023-01-22T14:35:16.822Z,94.04
2023-01-22T14:36:56.987Z,94.09
2023-01-22T14:38:37.179Z,94.09
2023-01-22T14:41:40.843Z,94.25
2023-01-22T14:43:21.027Z,94.31
2023-01-22T14:45:01.233Z,94.33
2023-01-22T14:46:41.485Z,94.42
2023-01-22T14:48:21.761Z,94.44
2023-01-22T14:50:01.997Z,94.57
2023-01-22T14:51:42.274Z,94.74
2023-01-22T14:53:22.486Z,94.69
2023-01-22T14:55:02.771Z,94.64
2023-01-22T14:56:42.999Z,94.62
2023-01-22T14:58:23.213Z,94.8
2023-01-22T15:00:03.489Z,94.82
2023-01-22T15:01:43.685Z,94.8
2023-01-22T15:03:23.912Z,94.92
2023-01-22T15:05:04.079Z,95
2023-01-22T15:06:44.369Z,95
2023-01-22T15:08:24.649Z,95.06
2023-01-22T15:10:04.804Z,95.11
2023-01-22T15:11:45.074Z,95.17
2023-01-22T15:13:25.319Z,95.21
2023-01-22T15:15:05.506Z,95.19
2023-01-22T15:16:45.773Z,95.23
2023-01-22T15:18:29.009Z,95.25
2023-01-22T15:20:06.199Z,95.35
2023-01-22T15:21:46.370Z,95.37
2023-01-22T15:23:26.619Z,95.43
2023-01-22T15:25:06.778Z,95.43
2023-01-22T15:26:47.028Z,95.48
2023-01-22T15:28:27.288Z,95.56
2023-01-22T15:30:07.477Z,95.65
2023-01-22T15:31:47.703Z,95.76
2023-01-22T15:33:27.832Z,95.83
2023-01-22T15:35:08.051Z,95.92
2023-01-22T15:36:48.230Z,95.97
2023-01-22T15:38:28.435Z,96.05
2023-01-22T15:40:08.626Z,96.15
2023-01-22T15:41:48.842Z,96.25
2023-01-22T15:43:29.027Z,96.37
2023-01-22T15:45:09.253Z,96.46
2023-01-22T15:46:49.401Z,96.48
2023-01-22T15:48:29.601Z,96.58
2023-01-22T15:50:12.963Z,96.64
2023-01-22T15:51:50.091Z,96.71
2023-01-22T15:53:30.295Z,96.76
2023-01-22T15:55:10.502Z,96.8
2023-01-22T15:56:50.650Z,96.9
2023-01-22T15:58:30.888Z,96.91
2023-01-22T16:00:11.115Z,97.02
2023-01-22T16:01:51.382Z,97.04
2023-01-22T16:03:31.547Z,97.07
2023-01-22T16:05:11.762Z,97.15
2023-01-22T16:06:52.005Z,97.16
2023-01-22T16:08:32.220Z,97.18
2023-01-22T16:10:12.429Z,97.28
2023-01-22T16:11:52.644Z,97.31
2023-01-22T16:13:32.809Z,97.34
2023-01-22T16:15:13.022Z,97.37
2023-01-22T16:18:33.503Z,97.36
2023-01-22T16:20:13.696Z,97.38
2023-01-22T16:23:34.151Z,97.4
2023-01-22T16:25:14.364Z,97.42
2023-01-22T16:26:54.522Z,97.44
2023-01-22T16:28:37.859Z,97.48
2023-01-22T16:30:18.318Z,97.48
2023-01-22T16:31:55.352Z,97.47
2023-01-22T16:33:35.437Z,97.49
2023-01-22T16:35:15.722Z,97.45
2023-01-22T16:36:55.930Z,97.49
2023-01-22T16:38:39.208Z,97.52
2023-01-22T16:40:16.511Z,97.51
2023-01-22T16:41:56.556Z,97.58
2023-01-22T16:43:36.780Z,97.56
2023-01-22T16:45:16.939Z,97.55
2023-01-22T16:46:57.235Z,97.54
2023-01-22T16:48:37.363Z,97.54
2023-01-22T16:50:18.007Z,97.62
2023-01-22T16:51:57.879Z,97.59
2023-01-22T16:53:38.086Z,97.55
2023-01-22T16:55:18.311Z,97.64
2023-01-22T16:56:58.548Z,97.62
2023-01-22T16:58:38.781Z,97.72
2023-01-22T17:00:19.438Z,97.72
2023-01-22T17:01:59.255Z,97.72
2023-01-22T17:03:39.545Z,97.76
2023-01-22T17:05:19.761Z,97.75
2023-01-22T17:06:59.997Z,97.74
2023-01-22T17:08:40.189Z,97.76
2023-01-22T17:10:20.767Z,97.82
2023-01-22T17:12:00.600Z,97.86
2023-01-22T17:13:40.820Z,97.89
2023-01-22T17:15:21.032Z,97.89
2023-01-22T17:17:01.226Z,97.85
2023-01-22T17:18:41.396Z,97.85
2023-01-22T17:20:21.631Z,97.88
2023-01-22T17:22:01.812Z,97.86
2023-01-22T17:23:41.960Z,97.83
2023-01-22T17:25:22.142Z,97.81
2023-01-22T17:27:02.314Z,97.81
2023-01-22T17:28:49.629Z,97.85
2023-01-22T17:30:22.779Z,97.86
2023-01-22T17:32:02.968Z,97.92
2023-01-22T17:33:43.249Z,97.95
2023-01-22T17:35:23.469Z,98.02
2023-01-22T17:37:03.676Z,98.05
2023-01-22T17:38:43.894Z,98.13
2023-01-22T17:40:24.056Z,98.13
2023-01-22T17:42:04.212Z,98.21
2023-01-22T17:43:44.382Z,98.2
2023-01-22T17:45:24.595Z,98.27
2023-01-22T17:47:04.840Z,98.29
2023-01-22T17:48:45.041Z,98.31
2023-01-22T17:50:25.308Z,98.33
2023-01-22T17:52:05.476Z,98.36
2023-01-22T17:53:45.686Z,98.36
2023-01-22T17:55:25.927Z,98.34
2023-01-22T17:57:06.146Z,98.34
2023-01-22T17:58:46.335Z,98.33
2023-01-22T18:00:32.204Z,98.28
2023-01-22T18:02:06.813Z,98.26
2023-01-22T18:03:47.020Z,98.25
2023-01-22T18:05:27.236Z,98.2
2023-01-22T18:07:07.455Z,98.15
2023-01-22T18:08:47.614Z,98.14
2023-01-22T18:10:27.840Z,98.12
2023-01-22T18:12:08.104Z,98.13
2023-01-22T18:13:48.285Z,98.14
2023-01-22T18:15:28.491Z,98.12
2023-01-22T18:17:08.648Z,98.12
2023-01-22T18:18:48.909Z,98.11
2023-01-22T18:20:29.131Z,98.16
2023-01-22T18:22:09.325Z,98.13
2023-01-22T18:23:49.521Z,98.15
2023-01-22T18:25:29.751Z,98.17
2023-01-22T18:27:09.951Z,98.15
2023-01-22T18:28:50.191Z,98.21
2023-01-22T18:30:30.437Z,98.19
2023-01-22T18:32:10.554Z,98.22
2023-01-22T18:33:50.860Z,98.25
2023-01-22T18:35:31.041Z,98.27
2023-01-22T18:37:11.290Z,98.29
2023-01-22T18:38:51.505Z,98.27
2023-01-22T18:40:31.683Z,98.32
2023-01-22T18:42:11.889Z,98.35
2023-01-22T18:43:53.712Z,98.41
2023-01-22T18:45:32.365Z,98.43
2023-01-22T18:47:12.559Z,98.39
2023-01-22T18:48:52.759Z,98.39
2023-01-22T18:50:32.990Z,98.4
2023-01-22T18:52:13.245Z,98.44
2023-01-22T18:53:53.388Z,98.49
2023-01-22T18:55:33.613Z,98.51
2023-01-22T18:57:13.811Z,98.55
2023-01-22T18:58:54.012Z,98.57
2023-01-22T19:00:34.260Z,98.62
2023-01-22T19:02:14.431Z,98.64
2023-01-22T19:03:54.659Z,98.62
2023-01-22T19:05:34.837Z,98.65
2023-01-22T19:07:16.136Z,98.64
2023-01-22T19:08:55.376Z,98.7
2023-01-22T19:10:35.483Z,98.62
2023-01-22T19:12:15.770Z,98.62
2023-01-22T19:13:55.966Z,98.6
2023-01-22T19:15:36.156Z,98.62
2023-01-22T19:17:16.354Z,98.63
2023-01-22T19:18:56.571Z,98.61
2023-01-22T19:20:36.736Z,98.6
2023-01-22T19:22:16.928Z,98.67
2023-01-22T19:23:57.119Z,98.66
2023-01-22T19:25:37.333Z,98.63
2023-01-22T19:27:17.523Z,98.61
2023-01-22T19:28:57.756Z,98.61
2023-01-22T19:30:37.996Z,98.59
2023-01-22T19:32:18.149Z,98.58
2023-01-22T19:33:58.399Z,98.57
2023-01-22T19:35:38.582Z,98.56
2023-01-22T19:37:18.759Z,98.53
2023-01-22T19:38:58.914Z,98.58
2023-01-22T19:40:39.085Z,98.56
2023-01-22T19:42:19.331Z,98.58
2023-01-22T19:43:59.529Z,98.58
2023-01-22T19:45:39.766Z,98.6
2023-01-22T19:47:20.004Z,98.58
2023-01-22T19:49:00.256Z,98.54
2023-01-22T19:50:41.574Z,98.52
2023-01-22T19:52:20.740Z,98.51
2023-01-22T19:54:03.972Z,98.51
2023-01-22T19:55:41.113Z,98.49
2023-01-22T19:57:21.286Z,98.43
2023-01-22T19:59:01.552Z,98.45
2023-01-22T20:00:41.761Z,98.51
2023-01-22T20:02:22.052Z,98.45
2023-01-22T20:04:02.221Z,98.48
2023-01-22T20:05:42.483Z,98.48
2023-01-22T20:07:22.754Z,98.47
2023-01-22T20:09:02.935Z,98.48
2023-01-22T20:10:43.101Z,98.43
2023-01-22T20:12:23.310Z,98.42
2023-01-22T20:14:03.552Z,98.44
2023-01-22T20:15:43.756Z,98.46
2023-01-22T20:17:24.006Z,98.45
2023-01-22T20:19:04.173Z,98.46
2023-01-22T20:20:44.396Z,98.39
2023-01-22T20:22:24.629Z,98.45
2023-01-22T20:24:04.840Z,98.49
2023-01-22T20:25:45.058Z,98.5
2023-01-22T20:27:25.257Z,98.49
2023-01-22T20:29:05.460Z,98.45
2023-01-22T20:30:45.794Z,98.42
2023-01-22T20:32:25.874Z,98.45
2023-01-22T20:34:06.128Z,98.48
2023-01-22T20:35:46.355Z,98.48
2023-01-22T20:37:26.601Z,98.52
2023-01-22T20:39:06.827Z,98.56
2023-01-22T20:40:47.017Z,98.61
2023-01-22T20:42:27.259Z,98.72
2023-01-22T20:44:10.468Z,98.72
2023-01-22T20:45:47.675Z,98.75
2023-01-22T20:47:27.838Z,98.78
2023-01-22T20:49:08.066Z,98.8
2023-01-22T20:50:48.346Z,98.92
2023-01-22T20:52:28.511Z,98.94
2023-01-22T20:54:08.779Z,99
2023-01-22T20:55:49.026Z,99.07
2023-01-22T20:57:29.240Z,99.06
2023-01-22T20:59:09.418Z,99.08
2023-01-22T21:00:49.637Z,99.07
2023-01-22T21:02:29.839Z,99.05
2023-01-22T21:04:10.017Z,99.01
2023-01-22T21:05:50.206Z,99.02
2023-01-22T21:07:30.480Z,98.96
2023-01-22T21:09:10.590Z,98.95
2023-01-22T21:10:50.822Z,98.94
2023-01-22T21:12:31.041Z,98.91
2023-01-22T21:14:11.195Z,98.92
2023-01-22T21:15:51.465Z,98.85
2023-01-22T21:17:31.594Z,98.91
2023-01-22T21:19:11.849Z,98.93
2023-01-22T21:20:52.111Z,98.9
2023-01-22T21:22:32.386Z,98.94
2023-01-22T21:24:12.490Z,98.93
2023-01-22T21:25:52.724Z,98.89
2023-01-22T21:27:32.983Z,98.91
2023-01-22T21:29:13.200Z,98.89
2023-01-22T21:30:53.458Z,98.79
2023-01-22T21:32:33.634Z,98.69
2023-01-22T21:34:13.842Z,98.64
2023-01-22T21:35:54.079Z,98.52
2023-01-22T21:37:34.335Z,98.52
2023-01-22T21:39:14.969Z,98.51
2023-01-22T21:40:54.658Z,98.46